0NC6 weather

Our Community Hospital Heliport
Scotland Neck, North Carolina, United States

Public forecast

Using degrees Fahrenheit for public forecast. Weather courtesy of forecast.io.

Closest aviation weather report (METAR) to Our Community Hospital Heliport

Closest report is Tarboro Edgecombe Airport, 13.2 nm (24.5 km) SSW. Retrieved 2020/07/14 23:35 UTC (0 seconds ago):

KETC 142335Z AUTO 00000KT 7SM SCT075 BKN085 30/22 A3000 RMK AO2 T03000220

Closest aviation forecast (TAF) to Our Community Hospital Heliport

Closest forecast is Rocky Mount Wilson Regional Airport, 28.3 nm (52.4 km) SW. Retrieved 2020/07/14 18:27 UTC (5 hours ago):

TAF KRWI 141724Z 1418/1518 VRB05KT P6SM SCT045 SCT250